createdAt,value
2023-04-21T00:01:36.399Z,102555.53
2023-04-21T00:04:23.397Z,102539.03
2023-04-21T00:07:10.570Z,102553.88
2023-04-21T00:09:57.535Z,102565.38
2023-04-21T00:12:44.651Z,102550.38
2023-04-21T00:15:31.533Z,102557.50
2023-04-21T00:18:18.491Z,102559.25
2023-04-21T00:21:05.334Z,102566.41
2023-04-21T00:23:53.061Z,102548.91
2023-04-21T00:26:39.942Z,102565.56
2023-04-21T00:29:27.763Z,102562.97
2023-04-21T00:32:14.601Z,102563.03
2023-04-21T00:35:01.769Z,102557.81
2023-04-21T00:37:48.602Z,102561.38
2023-04-21T00:40:36.004Z,102561.44
2023-04-21T00:43:27.941Z,102549.22
2023-04-21T00:46:14.958Z,102565.06
2023-04-21T00:49:01.795Z,102563.38
2023-04-21T00:51:49.372Z,102499.44
2023-04-21T00:54:37.516Z,102569.59
2023-04-21T00:57:25.128Z,102555.50
2023-04-21T01:00:14.026Z,102467.09
2023-04-21T01:03:01.451Z,102557.28
2023-04-21T01:05:48.500Z,102545.03
2023-04-21T01:08:35.753Z,102559.09
2023-04-21T01:11:30.240Z,102543.19
2023-04-21T01:14:18.745Z,102541.50
2023-04-21T01:17:05.685Z,102546.81
2023-04-21T01:19:58.769Z,102540.66
2023-04-21T01:22:46.732Z,102541.59
2023-04-21T01:25:33.758Z,102535.47
2023-04-21T01:28:20.742Z,102513.59
2023-04-21T01:31:07.720Z,102534.72
2023-04-21T01:33:55.225Z,102471.66
2023-04-21T01:36:42.406Z,102522.44
2023-04-21T01:39:29.480Z,102526.03
2023-04-21T01:42:16.929Z,102529.59
2023-04-21T01:45:03.945Z,102496.31
2023-04-21T01:47:51.868Z,102522.63
2023-04-21T01:50:38.894Z,102520.03
2023-04-21T01:53:26.030Z,102519.16
2023-04-21T01:56:13.146Z,102518.34
2023-04-21T01:59:00.184Z,102524.53
2023-04-21T02:01:47.186Z,102517.53
2023-04-21T02:04:34.372Z,102503.50
2023-04-21T02:07:21.736Z,102480.00
2023-04-21T02:10:08.732Z,102517.69
2023-04-21T02:12:55.739Z,102512.44
2023-04-21T02:15:42.945Z,102505.41
2023-04-21T02:18:49.746Z,102515.13
2023-04-21T02:21:37.110Z,102510.75
2023-04-21T02:24:24.356Z,102516.94
2023-04-21T02:27:13.389Z,102515.22
2023-04-21T02:30:00.337Z,102512.63
2023-04-21T02:32:47.674Z,102506.50
2023-04-21T02:35:34.666Z,102508.25
2023-04-21T02:38:22.033Z,102507.41
2023-04-21T02:41:09.077Z,102503.00
2023-04-21T02:43:56.108Z,102498.59
2023-04-21T02:46:43.197Z,102477.63
2023-04-21T02:49:30.619Z,102469.66
2023-04-21T02:52:18.655Z,102495.16
2023-04-21T02:55:05.737Z,102488.94
2023-04-21T02:57:52.807Z,102486.34
2023-04-21T03:00:42.747Z,102484.69
2023-04-21T03:03:30.395Z,102446.16
2023-04-21T03:06:22.393Z,102492.59
2023-04-21T03:09:09.563Z,102489.09
2023-04-21T03:11:56.470Z,102478.59
2023-04-21T03:14:43.379Z,102454.88
2023-04-21T03:17:32.919Z,102413.84
2023-04-21T03:20:20.550Z,102482.13
2023-04-21T03:23:07.551Z,102482.19
2023-04-21T03:25:54.669Z,102477.78
2023-04-21T03:28:41.733Z,102476.03
2023-04-21T03:31:28.751Z,102453.34
2023-04-21T03:34:15.932Z,102478.78
2023-04-21T03:37:03.225Z,102470.88
2023-04-21T03:39:50.238Z,102491.16
2023-04-21T03:42:38.339Z,102472.72
2023-04-21T03:45:26.845Z,102474.47
2023-04-21T03:48:14.781Z,102456.03
2023-04-21T03:51:01.657Z,102469.19
2023-04-21T03:53:48.710Z,102468.31
2023-04-21T03:56:35.533Z,102468.34
2023-04-21T03:59:22.655Z,102446.34
2023-04-21T04:02:09.591Z,102417.47
2023-04-21T04:04:56.704Z,102425.25
2023-04-21T04:07:43.665Z,102440.16
2023-04-21T04:10:30.924Z,102443.63
2023-04-21T04:13:17.718Z,102441.88
2023-04-21T04:16:04.754Z,102446.22
2023-04-21T04:18:52.053Z,102450.66
2023-04-21T04:21:39.084Z,102428.56
2023-04-21T04:24:26.543Z,102430.22
2023-04-21T04:27:13.983Z,102410.94
2023-04-21T04:30:01.021Z,102424.88
2023-04-21T04:32:48.106Z,102436.19
2023-04-21T04:35:34.956Z,102442.31
2023-04-21T04:38:22.191Z,102425.56
2023-04-21T04:41:15.568Z,102431.56
2023-04-21T04:44:03.469Z,102431.44
2023-04-21T04:46:51.250Z,102433.16
2023-04-21T04:49:38.325Z,102431.28
2023-04-21T04:52:25.267Z,102432.97
2023-04-21T04:55:12.518Z,102437.25
2023-04-21T04:57:59.583Z,102427.47
2023-04-21T05:00:46.599Z,102428.19
2023-04-21T05:03:33.523Z,102431.56
2023-04-21T05:06:20.764Z,102427.03
2023-04-21T05:09:07.598Z,102421.63
2023-04-21T05:11:54.574Z,102430.22
2023-04-21T05:14:41.390Z,102427.44
2023-04-21T05:17:28.528Z,102350.25
2023-04-21T05:20:15.559Z,102420.97
2023-04-21T05:23:02.684Z,102348.38
2023-04-21T05:25:49.514Z,102421.50
2023-04-21T05:28:36.620Z,102413.38
2023-04-21T05:31:23.506Z,102415.91
2023-04-21T05:34:10.530Z,102399.19
2023-04-21T05:36:57.329Z,102410.38
2023-04-21T05:39:47.005Z,102412.84
2023-04-21T05:42:34.291Z,102408.25
2023-04-21T05:45:22.449Z,102404.59
2023-04-21T05:48:10.771Z,102400.94
2023-04-21T05:50:58.809Z,102391.22
2023-04-21T05:53:45.811Z,102399.81
2023-04-21T05:56:33.295Z,102404.09
2023-04-21T05:59:20.228Z,102394.31
2023-04-21T06:02:07.578Z,102397.63
2023-04-21T06:04:54.826Z,102402.78
2023-04-21T06:07:42.040Z,102403.50
2023-04-21T06:10:30.215Z,102395.50
2023-04-21T06:13:17.412Z,102399.69
2023-04-21T06:16:04.446Z,102410.19
2023-04-21T06:18:51.601Z,102402.97
2023-04-21T06:21:38.780Z,102397.53
2023-04-21T06:24:26.184Z,102395.63
2023-04-21T06:27:13.054Z,102401.69
2023-04-21T06:30:00.545Z,102399.81
2023-04-21T06:32:47.478Z,102384.56
2023-04-21T06:35:35.027Z,102369.56
2023-04-21T06:38:21.809Z,102381.66
2023-04-21T06:41:08.953Z,102344.75
2023-04-21T06:43:55.932Z,102375.13
2023-04-21T06:46:42.955Z,102377.59
2023-04-21T06:49:30.238Z,102376.50
2023-04-21T06:52:18.283Z,102379.06
2023-04-21T06:55:06.820Z,102378.09
2023-04-21T06:57:53.930Z,102378.78
2023-04-21T07:00:40.839Z,102367.09
2023-04-21T07:03:27.982Z,102373.19
2023-04-21T07:06:14.782Z,102368.56
2023-04-21T07:09:01.912Z,102352.47
2023-04-21T07:11:48.756Z,102368.31
2023-04-21T07:14:36.048Z,102318.16
2023-04-21T07:17:22.925Z,102349.59
2023-04-21T07:20:10.141Z,102349.38
2023-04-21T07:22:57.186Z,102291.41
2023-04-21T07:25:44.274Z,102335.78
2023-04-21T07:28:31.131Z,102338.25
2023-04-21T07:31:18.171Z,102332.78
2023-04-21T07:34:05.058Z,102333.41
2023-04-21T07:36:52.019Z,102330.56
2023-04-21T07:39:38.940Z,102328.59
2023-04-21T07:42:26.029Z,102316.97
2023-04-21T07:45:13.218Z,102320.28
2023-04-21T07:48:00.365Z,102329.91
2023-04-21T07:50:47.322Z,102324.38
2023-04-21T07:53:34.249Z,102316.22
2023-04-21T07:56:21.109Z,102306.28
2023-04-21T07:59:08.111Z,102313.06
2023-04-21T08:01:54.997Z,102305.75
2023-04-21T08:04:42.167Z,102309.94
2023-04-21T08:07:29.211Z,102244.56
2023-04-21T08:10:16.206Z,102306.03
2023-04-21T08:13:03.307Z,102303.09
2023-04-21T08:15:50.307Z,102304.66
2023-04-21T08:18:37.223Z,102303.53
2023-04-21T08:21:24.426Z,102309.63
2023-04-21T08:24:11.538Z,102312.00
2023-04-21T08:26:58.603Z,102282.06
2023-04-21T08:29:45.492Z,102309.81
2023-04-21T08:32:33.073Z,102312.28
2023-04-21T08:35:20.064Z,102307.63
2023-04-21T08:38:07.157Z,102305.59
2023-04-21T08:40:56.446Z,102303.53
2023-04-21T08:43:43.503Z,102311.25
2023-04-21T08:46:30.490Z,102307.50
2023-04-21T08:49:18.965Z,102306.25
2023-04-21T08:52:07.209Z,102304.16
2023-04-21T08:54:54.965Z,102236.88
2023-04-21T08:57:41.915Z,102305.31
2023-04-21T09:00:29.398Z,102304.06
2023-04-21T09:03:25.594Z,102297.47
2023-04-21T09:06:27.964Z,102293.56
2023-04-21T09:09:18.688Z,102282.47
2023-04-21T09:12:15.067Z,102227.28
2023-04-21T09:15:03.304Z,102244.09
2023-04-21T09:17:52.231Z,102281.31
2023-04-21T09:20:40.907Z,102274.66
2023-04-21T09:23:28.214Z,102262.63
2023-04-21T09:26:15.183Z,102239.53
2023-04-21T09:29:09.540Z,102266.09
2023-04-21T09:31:56.445Z,102261.03
2023-04-21T09:34:45.357Z,102269.19
2023-04-21T09:37:34.105Z,102234.34
2023-04-21T09:40:21.216Z,102253.13
2023-04-21T09:43:08.089Z,102251.94
2023-04-21T09:45:56.542Z,102249.19
2023-04-21T09:48:44.823Z,102178.69
2023-04-21T09:54:33.026Z,102238.34
2023-04-21T09:57:22.206Z,102237.94
2023-04-21T10:00:14.439Z,102231.38
2023-04-21T10:03:05.005Z,102227.75
2023-04-21T10:05:52.114Z,102232.81
2023-04-21T10:08:39.970Z,102214.41
2023-04-21T10:11:28.555Z,102217.69
2023-04-21T10:14:15.504Z,102214.28
2023-04-21T10:17:02.842Z,102177.56
2023-04-21T10:19:52.607Z,102196.25
2023-04-21T10:22:53.810Z,102158.28
2023-04-21T10:25:40.821Z,102195.66
2023-04-21T10:28:28.415Z,102189.44
2023-04-21T10:31:38.301Z,102177.81
2023-04-21T10:34:28.319Z,102184.13
2023-04-21T10:37:15.222Z,102169.97
2023-04-21T10:40:15.775Z,102109.84
2023-04-21T10:43:02.892Z,102153.25
2023-04-21T10:45:50.636Z,102175.09
2023-04-21T10:48:42.843Z,102167.91
2023-04-21T10:51:31.135Z,102165.28
2023-04-21T10:54:18.989Z,102162.16
2023-04-21T10:57:06.413Z,102164.25
2023-04-21T10:59:55.437Z,102150.03
2023-04-21T11:02:44.718Z,102150.19
2023-04-21T11:05:32.472Z,102152.75
2023-04-21T11:08:24.276Z,102146.38
2023-04-21T11:11:14.537Z,102139.81
2023-04-21T11:14:01.447Z,102104.78
2023-04-21T11:16:49.265Z,102133.09
2023-04-21T11:19:36.218Z,102130.72
2023-04-21T11:22:24.480Z,102123.28
2023-04-21T11:25:14.670Z,102133.00
2023-04-21T11:28:01.678Z,102122.16
2023-04-21T11:30:55.470Z,102115.50
2023-04-21T11:33:42.525Z,102114.50
2023-04-21T11:36:29.431Z,102108.94
2023-04-21T11:39:16.478Z,102101.53
2023-04-21T11:42:05.496Z,102094.09
2023-04-21T11:44:55.336Z,102091.56
2023-04-21T11:47:47.161Z,102091.84
2023-04-21T11:50:50.592Z,102083.25
2023-04-21T11:53:37.603Z,102093.41
2023-04-21T11:56:25.593Z,102096.88
2023-04-21T11:59:13.124Z,102092.66
2023-04-21T12:02:18.293Z,102090.81
2023-04-21T12:05:26.140Z,102082.47
2023-04-21T12:08:16.834Z,102078.50
2023-04-21T12:11:06.978Z,102061.94
2023-04-21T12:13:54.192Z,102069.94
2023-04-21T12:16:41.118Z,102063.09
2023-04-21T12:19:28.564Z,102059.59
2023-04-21T12:22:19.190Z,102053.00
2023-04-21T12:25:06.654Z,102048.06
2023-04-21T12:27:53.593Z,102049.56
2023-04-21T12:30:42.519Z,102035.63
2023-04-21T12:33:30.878Z,102041.41
2023-04-21T12:36:18.078Z,102036.91
2023-04-21T12:39:05.003Z,102043.09
2023-04-21T12:41:52.042Z,101965.34
2023-04-21T12:44:38.926Z,102026.31
2023-04-21T12:47:26.505Z,101987.25
2023-04-21T12:50:13.717Z,102015.78
2023-04-21T12:53:00.811Z,102017.38
2023-04-21T12:56:01.084Z,102010.47
2023-04-21T12:58:51.557Z,102001.94
2023-04-21T13:01:41.500Z,101957.53
2023-04-21T13:04:29.048Z,101988.41
2023-04-21T13:07:16.014Z,101994.47
2023-04-21T13:10:03.224Z,101994.00
2023-04-21T13:12:50.112Z,101995.72
2023-04-21T13:15:37.253Z,101984.47
2023-04-21T13:18:24.321Z,101956.00
2023-04-21T13:21:11.465Z,101966.00
2023-04-21T13:23:58.402Z,101974.16
2023-04-21T13:26:45.926Z,101968.63
2023-04-21T13:29:33.270Z,101975.03
2023-04-21T13:32:21.895Z,101958.50
2023-04-21T13:35:09.388Z,101962.91
2023-04-21T13:38:01.839Z,101957.31
2023-04-21T13:40:48.996Z,101937.81
2023-04-21T13:43:36.384Z,101921.03
2023-04-21T13:46:23.335Z,101940.75
2023-04-21T13:49:10.542Z,101938.81
2023-04-21T13:51:57.507Z,101938.09
2023-04-21T13:54:44.686Z,101932.94
2023-04-21T13:57:31.710Z,101939.88
2023-04-21T14:00:19.338Z,101896.97
2023-04-21T14:03:06.442Z,101915.53
2023-04-21T14:05:54.003Z,101934.59
2023-04-21T14:08:40.867Z,101915.75
2023-04-21T14:11:27.863Z,101908.50
2023-04-21T14:14:18.926Z,101911.66
2023-04-21T14:17:11.801Z,101912.09
2023-04-21T14:19:59.464Z,101907.91
2023-04-21T14:22:46.481Z,101905.56
2023-04-21T14:25:33.420Z,101901.34
2023-04-21T14:28:20.425Z,101874.63
2023-04-21T14:31:07.252Z,101890.53
2023-04-21T14:33:54.594Z,101890.75
2023-04-21T14:36:41.853Z,101872.66
2023-04-21T14:39:29.052Z,101880.41
2023-04-21T14:42:15.917Z,101881.28
2023-04-21T14:45:03.038Z,101870.59
2023-04-21T14:47:49.997Z,101867.13
2023-04-21T14:50:37.134Z,101870.59
2023-04-21T14:53:24.028Z,101862.59
2023-04-21T14:56:11.257Z,101846.84
2023-04-21T14:58:58.213Z,101853.63
2023-04-21T15:01:45.199Z,101851.78
2023-04-21T15:04:32.356Z,101855.59
2023-04-21T15:07:24.764Z,101843.16
2023-04-21T15:10:12.187Z,101839.38
2023-04-21T15:12:59.239Z,101835.47
2023-04-21T15:15:46.083Z,101830.81
2023-04-21T15:18:33.230Z,101818.78
2023-04-21T15:21:20.185Z,101806.16
2023-04-21T15:24:07.352Z,101820.28
2023-04-21T15:26:54.215Z,101818.31
2023-04-21T15:29:41.244Z,101818.31
2023-04-21T15:32:28.245Z,101812.44
2023-04-21T15:35:15.259Z,101803.88
2023-04-21T15:38:02.136Z,101785.66
2023-04-21T15:41:00.211Z,101796.63
2023-04-21T15:43:48.919Z,101804.81
2023-04-21T15:46:35.982Z,101796.09
2023-04-21T15:49:25.281Z,101794.91
2023-04-21T15:52:13.253Z,101789.25
2023-04-21T15:55:00.173Z,101786.56
2023-04-21T15:57:47.362Z,101776.59
2023-04-21T16:00:16.500Z,101764.56
2023-04-21T16:02:43.630Z,101769.25
2023-04-21T16:05:11.193Z,101760.75
2023-04-21T16:07:38.360Z,101770.53
2023-04-21T16:10:05.863Z,101732.38
2023-04-21T16:12:32.947Z,101754.91
2023-04-21T16:15:09.145Z,101751.94
2023-04-21T16:17:43.348Z,101744.56
2023-04-21T16:20:11.882Z,101745.91
2023-04-21T16:22:38.930Z,101742.72
2023-04-21T16:25:06.230Z,101728.09
2023-04-21T16:27:33.452Z,101738.53
2023-04-21T16:30:00.531Z,101732.63
2023-04-21T16:32:28.075Z,101728.59
2023-04-21T16:34:55.875Z,101727.97
2023-04-21T16:37:23.661Z,101714.44
2023-04-21T16:39:51.128Z,101720.47
2023-04-21T16:42:18.198Z,101720.72
2023-04-21T16:44:45.597Z,101714.81
2023-04-21T16:47:12.778Z,101713.47
2023-04-21T16:49:39.765Z,101720.84
2023-04-21T16:52:06.800Z,101708.44
2023-04-21T16:54:33.746Z,101712.72
2023-04-21T16:57:02.371Z,101709.25
2023-04-21T16:59:30.762Z,101699.81
2023-04-21T17:02:18.037Z,101706.31
2023-04-21T17:05:05.484Z,101701.50
2023-04-21T17:07:53.454Z,101694.00
2023-04-21T17:10:40.399Z,101695.59
2023-04-21T17:13:27.356Z,101669.59
2023-04-21T17:16:14.428Z,101679.53
2023-04-21T17:19:01.585Z,101692.69
2023-04-21T17:21:48.419Z,101694.50
2023-04-21T17:24:51.726Z,101692.97
2023-04-21T17:27:40.069Z,101689.81
2023-04-21T17:30:28.274Z,101687.75
2023-04-21T17:33:17.376Z,101682.97
2023-04-21T17:36:04.825Z,101691.69
2023-04-21T17:38:52.020Z,101679.75
2023-04-21T17:41:39.162Z,101677.63
2023-04-21T17:44:26.000Z,101666.63
2023-04-21T17:47:13.064Z,101669.75
2023-04-21T17:50:00.345Z,101674.81
2023-04-21T17:52:47.277Z,101668.94
2023-04-21T17:55:34.218Z,101641.41
2023-04-21T17:58:21.895Z,101660.66
2023-04-21T18:01:09.332Z,101656.72
2023-04-21T18:03:59.270Z,101654.69
2023-04-21T18:06:48.380Z,101665.19
2023-04-21T18:09:35.320Z,101652.44
2023-04-21T18:12:22.200Z,101621.81
2023-04-21T18:15:09.234Z,101642.34
2023-04-21T18:17:56.185Z,101632.91
2023-04-21T18:20:43.110Z,101641.16
2023-04-21T18:23:30.093Z,101641.03
2023-04-21T18:26:17.117Z,101644.47
2023-04-21T18:29:04.164Z,101624.09
2023-04-21T18:31:51.354Z,101639.59
2023-04-21T18:34:38.709Z,101641.34
2023-04-21T18:37:25.833Z,101635.22
2023-04-21T18:40:12.940Z,101640.63
2023-04-21T18:42:59.930Z,101631.00
2023-04-21T18:45:46.767Z,101627.56
2023-04-21T18:48:33.872Z,101625.75
2023-04-21T18:51:20.877Z,101624.50
2023-04-21T18:54:07.888Z,101623.19
2023-04-21T18:56:54.858Z,101621.19
2023-04-21T18:59:41.868Z,101612.50
2023-04-21T19:02:32.540Z,101617.47
2023-04-21T19:05:19.653Z,101623.16
2023-04-21T19:08:06.630Z,101621.84
2023-04-21T19:10:56.788Z,101621.38
2023-04-21T19:13:43.665Z,101620.97
2023-04-21T19:16:31.612Z,101614.63
2023-04-21T19:19:18.692Z,101618.38
2023-04-21T19:22:06.065Z,101619.91
2023-04-21T19:24:53.265Z,101612.50
2023-04-21T19:27:40.426Z,101617.50
2023-04-21T19:30:28.226Z,101604.75
2023-04-21T19:33:15.618Z,101597.59
2023-04-21T19:36:02.680Z,101603.16
2023-04-21T19:38:49.838Z,101601.81
2023-04-21T19:41:37.146Z,101606.72
2023-04-21T19:44:24.416Z,101591.44
2023-04-21T19:47:11.269Z,101595.22
2023-04-21T19:49:58.222Z,101582.38
2023-04-21T19:52:45.125Z,101586.84
2023-04-21T19:55:32.378Z,101583.66
2023-04-21T19:58:32.042Z,101585.69
2023-04-21T20:01:26.268Z,101577.16
2023-04-21T20:04:13.371Z,101570.41
2023-04-21T20:07:00.430Z,101572.53
2023-04-21T20:09:47.265Z,101576.34
2023-04-21T20:12:34.267Z,101573.25
2023-04-21T20:15:21.377Z,101524.88
2023-04-21T20:18:08.476Z,101544.09
2023-04-21T20:20:55.634Z,101533.97
2023-04-21T20:23:42.692Z,101568.06
2023-04-21T20:26:29.794Z,101561.25
2023-04-21T20:29:16.698Z,101565.06
2023-04-21T20:32:03.863Z,101560.88
2023-04-21T20:34:50.717Z,101560.22
2023-04-21T20:37:37.789Z,101553.47
2023-04-21T20:40:24.897Z,101545.47
2023-04-21T20:43:11.905Z,101549.50
2023-04-21T20:45:59.549Z,101554.72
2023-04-21T20:48:46.488Z,101552.09
2023-04-21T20:51:33.351Z,101553.97
2023-04-21T20:54:20.552Z,101554.84
2023-04-21T20:57:08.451Z,101545.91
2023-04-21T20:59:55.490Z,101556.56
2023-04-21T21:02:42.394Z,101536.13
2023-04-21T21:05:29.661Z,101534.34
2023-04-21T21:08:16.686Z,101538.72
2023-04-21T21:11:03.607Z,101543.06
2023-04-21T21:13:50.491Z,101543.81
2023-04-21T21:16:37.821Z,101540.97
2023-04-21T21:19:24.942Z,101543.47
2023-04-21T21:22:11.883Z,101532.81
2023-04-21T21:24:58.706Z,101541.56
2023-04-21T21:27:45.660Z,101530.91
2023-04-21T21:30:32.758Z,101526.63
2023-04-21T21:33:19.797Z,101520.53
2023-04-21T21:36:06.761Z,101505.84
2023-04-21T21:38:53.960Z,101490.50
2023-04-21T21:41:40.950Z,101490.56
2023-04-21T21:44:28.542Z,101461.13
2023-04-21T21:47:15.393Z,101515.16
2023-04-21T21:50:02.498Z,101506.47
2023-04-21T21:52:49.361Z,101518.28
2023-04-21T21:55:36.434Z,101506.00
2023-04-21T21:58:23.711Z,101511.34
2023-04-21T22:01:10.860Z,101507.06
2023-04-21T22:03:57.924Z,101504.63
2023-04-21T22:06:45.042Z,101494.16
2023-04-21T22:09:31.822Z,101467.44
2023-04-21T22:12:19.827Z,101491.69
2023-04-21T22:15:06.672Z,101481.09
2023-04-21T22:17:54.209Z,101468.00
2023-04-21T22:20:41.289Z,101468.97
2023-04-21T22:23:28.557Z,101474.06
2023-04-21T22:26:15.356Z,101475.03
2023-04-21T22:29:02.252Z,101474.22
2023-04-21T22:31:50.161Z,101471.63
2023-04-21T22:34:37.082Z,101448.19
2023-04-21T22:37:23.947Z,101470.38
2023-04-21T22:40:10.935Z,101475.69
2023-04-21T22:42:58.041Z,101413.25
2023-04-21T22:45:45.120Z,101464.44
2023-04-21T22:48:32.292Z,101459.28
2023-04-21T22:51:19.786Z,101463.91
2023-04-21T22:54:06.850Z,101447.31
2023-04-21T22:56:54.327Z,101444.66
2023-04-21T22:59:41.298Z,101429.06
2023-04-21T23:02:28.233Z,101454.41
2023-04-21T23:05:15.214Z,101427.31
2023-04-21T23:08:02.121Z,101434.53
2023-04-21T23:10:50.064Z,101439.91
2023-04-21T23:13:36.945Z,101440.09
2023-04-21T23:16:23.900Z,101439.41
2023-04-21T23:19:10.978Z,101438.78
2023-04-21T23:21:58.896Z,101385.41
2023-04-21T23:24:45.776Z,101438.31
2023-04-21T23:27:32.691Z,101436.84
2023-04-21T23:30:19.611Z,101437.09
2023-04-21T23:33:06.687Z,101434.75
2023-04-21T23:35:53.780Z,101438.47
2023-04-21T23:38:40.873Z,101430.69
2023-04-21T23:41:27.907Z,101417.09
2023-04-21T23:44:15.023Z,101430.13
2023-04-21T23:47:02.179Z,101429.25
2023-04-21T23:49:49.443Z,101427.59
2023-04-21T23:52:36.329Z,101422.47
2023-04-21T23:55:23.611Z,101402.66
2023-04-21T23:58:10.479Z,101420.13
